sensor_id;sensor_type;location;lat;lon;timestamp;pressure;altitude;pressure_sealevel;temperature;humidity
56831;BME280;42713;42.676;23.352;2022-12-29T00:00:04;95689.28;;;5.74;72.62
56831;BME280;42713;42.676;23.352;2022-12-29T00:02:30;95691.25;;;5.72;71.87
56831;BME280;42713;42.676;23.352;2022-12-29T00:04:56;95686.88;;;5.73;71.95
56831;BME280;42713;42.676;23.352;2022-12-29T00:07:21;95691.50;;;5.78;71.67
56831;BME280;42713;42.676;23.352;2022-12-29T00:09:47;95686.69;;;5.74;72.00
56831;BME280;42713;42.676;23.352;2022-12-29T00:12:12;95696.72;;;5.78;71.38
56831;BME280;42713;42.676;23.352;2022-12-29T00:14:37;95691.44;;;5.71;71.70
56831;BME280;42713;42.676;23.352;2022-12-29T00:17:21;95691.44;;;5.71;71.96
56831;BME280;42713;42.676;23.352;2022-12-29T00:19:47;95700.66;;;5.73;71.58
56831;BME280;42713;42.676;23.352;2022-12-29T00:22:31;95696.66;;;5.71;72.48
56831;BME280;42713;42.676;23.352;2022-12-29T00:25:15;95707.03;;;5.71;71.79
56831;BME280;42713;42.676;23.352;2022-12-29T00:27:59;95700.84;;;5.72;72.35
56831;BME280;42713;42.676;23.352;2022-12-29T00:30:43;95709.81;;;5.69;72.56
56831;BME280;42713;42.676;23.352;2022-12-29T00:33:32;95709.66;;;5.71;72.71
56831;BME280;42713;42.676;23.352;2022-12-29T00:36:27;95713.84;;;5.72;71.83
56831;BME280;42713;42.676;23.352;2022-12-29T00:38:57;95703.19;;;5.67;72.62
56831;BME280;42713;42.676;23.352;2022-12-29T00:41:43;95709.78;;;5.63;72.25
56831;BME280;42713;42.676;23.352;2022-12-29T00:44:27;95714.78;;;5.64;71.76
56831;BME280;42713;42.676;23.352;2022-12-29T00:46:52;95717.75;;;5.61;71.44
56831;BME280;42713;42.676;23.352;2022-12-29T00:49:18;95722.56;;;5.64;71.41
56831;BME280;42713;42.676;23.352;2022-12-29T00:52:04;95714.78;;;5.64;71.54
56831;BME280;42713;42.676;23.352;2022-12-29T00:54:32;95716.75;;;5.62;71.94
56831;BME280;42713;42.676;23.352;2022-12-29T00:56:58;95720.53;;;5.59;71.78
56831;BME280;42713;42.676;23.352;2022-12-29T00:59:24;95723.34;;;5.58;72.53
56831;BME280;42713;42.676;23.352;2022-12-29T01:01:51;95718.31;;;5.56;72.55
56831;BME280;42713;42.676;23.352;2022-12-29T01:04:18;95715.47;;;5.51;71.72
56831;BME280;42713;42.676;23.352;2022-12-29T01:06:43;95717.44;;;5.49;72.54
56831;BME280;42713;42.676;23.352;2022-12-29T01:09:09;95714.47;;;5.52;72.23
56831;BME280;42713;42.676;23.352;2022-12-29T01:11:54;95717.50;;;5.56;71.72
56831;BME280;42713;42.676;23.352;2022-12-29T01:14:20;95709.09;;;5.54;71.59
56831;BME280;42713;42.676;23.352;2022-12-29T01:16:46;95704.50;;;5.56;71.94
56831;BME280;42713;42.676;23.352;2022-12-29T01:19:13;95709.09;;;5.54;72.22
56831;BME280;42713;42.676;23.352;2022-12-29T01:21:38;95710.91;;;5.53;71.35
56831;BME280;42713;42.676;23.352;2022-12-29T01:24:04;95702.09;;;5.54;71.51
56831;BME280;42713;42.676;23.352;2022-12-29T01:26:30;95716.09;;;5.53;72.00
56831;BME280;42713;42.676;23.352;2022-12-29T01:28:55;95708.28;;;5.53;71.30
56831;BME280;42713;42.676;23.352;2022-12-29T01:31:21;95693.22;;;5.49;71.33
56831;BME280;42713;42.676;23.352;2022-12-29T01:33:46;95693.00;;;5.43;71.94
56831;BME280;42713;42.676;23.352;2022-12-29T01:36:14;95697.28;;;5.51;71.45
56831;BME280;42713;42.676;23.352;2022-12-29T01:38:40;95698.25;;;5.50;71.54
56831;BME280;42713;42.676;23.352;2022-12-29T01:41:07;95686.00;;;5.44;71.08
56831;BME280;42713;42.676;23.352;2022-12-29T01:43:55;95692.44;;;5.48;70.89
56831;BME280;42713;42.676;23.352;2022-12-29T01:46:41;95688.44;;;5.45;71.85
56831;BME280;42713;42.676;23.352;2022-12-29T01:49:12;95681.97;;;5.41;71.50
56831;BME280;42713;42.676;23.352;2022-12-29T01:52:02;95679.59;;;5.40;71.36
56831;BME280;42713;42.676;23.352;2022-12-29T01:54:42;95679.50;;;5.33;71.88
56831;BME280;42713;42.676;23.352;2022-12-29T01:57:13;95671.34;;;5.36;71.75
56831;BME280;42713;42.676;23.352;2022-12-29T01:59:48;95681.34;;;5.39;72.08
56831;BME280;42713;42.676;23.352;2022-12-29T02:02:16;95675.38;;;5.39;71.70
56831;BME280;42713;42.676;23.352;2022-12-29T02:04:42;95670.38;;;5.37;71.44
56831;BME280;42713;42.676;23.352;2022-12-29T02:07:20;95671.34;;;5.36;71.57
56831;BME280;42713;42.676;23.352;2022-12-29T02:09:47;95661.75;;;5.37;71.44
56831;BME280;42713;42.676;23.352;2022-12-29T02:12:14;95668.56;;;5.38;71.94
56831;BME280;42713;42.676;23.352;2022-12-29T02:14:39;95659.91;;;5.30;72.02
56831;BME280;42713;42.676;23.352;2022-12-29T02:30:45;95665.91;;;5.31;71.90
56831;BME280;42713;42.676;23.352;2022-12-29T02:36:14;95671.91;;;5.32;71.61
56831;BME280;42713;42.676;23.352;2022-12-29T02:41:33;95669.06;;;5.26;72.07
56831;BME280;42713;42.676;23.352;2022-12-29T02:46:59;95664.47;;;5.28;71.04
56831;BME280;42713;42.676;23.352;2022-12-29T02:52:31;95654.44;;;5.25;71.42
56831;BME280;42713;42.676;23.352;2022-12-29T02:54:59;95661.88;;;5.28;71.73
56831;BME280;42713;42.676;23.352;2022-12-29T03:00:13;95654.44;;;5.25;71.29
56831;BME280;42713;42.676;23.352;2022-12-29T03:16:23;95661.50;;;5.10;71.64
56831;BME280;42713;42.676;23.352;2022-12-29T03:18:56;95654.50;;;5.10;71.55
56831;BME280;42713;42.676;23.352;2022-12-29T03:21:30;95648.75;;;5.15;72.22
56831;BME280;42713;42.676;23.352;2022-12-29T03:24:17;95639.56;;;5.12;71.83
56831;BME280;42713;42.676;23.352;2022-12-29T03:26:45;95639.19;;;5.16;71.91
56831;BME280;42713;42.676;23.352;2022-12-29T03:29:13;95641.59;;;5.17;72.13
56831;BME280;42713;42.676;23.352;2022-12-29T03:31:42;95649.22;;;5.19;71.56
56831;BME280;42713;42.676;23.352;2022-12-29T03:34:09;95647.22;;;5.21;71.18
56831;BME280;42713;42.676;23.352;2022-12-29T03:36:42;95644.81;;;5.19;71.39
56831;BME280;42713;42.676;23.352;2022-12-29T03:39:11;95650.38;;;5.16;71.17
56831;BME280;42713;42.676;23.352;2022-12-29T03:41:40;95649.16;;;5.12;71.36
56831;BME280;42713;42.676;23.352;2022-12-29T03:44:08;95654.69;;;5.09;71.48
56831;BME280;42713;42.676;23.352;2022-12-29T03:46:34;95652.66;;;5.04;71.30
56831;BME280;42713;42.676;23.352;2022-12-29T03:48:59;95653.44;;;5.05;71.55
56831;BME280;42713;42.676;23.352;2022-12-29T03:51:25;95661.34;;;4.96;72.08
56831;BME280;42713;42.676;23.352;2022-12-29T03:53:50;95663.34;;;4.94;71.47
56831;BME280;42713;42.676;23.352;2022-12-29T03:56:15;95664.06;;;4.88;71.66
56831;BME280;42713;42.676;23.352;2022-12-29T03:58:41;95672.03;;;4.87;71.13
56831;BME280;42713;42.676;23.352;2022-12-29T04:01:07;95668.38;;;4.81;71.59
56831;BME280;42713;42.676;23.352;2022-12-29T04:03:35;95666.69;;;4.73;71.72
56831;BME280;42713;42.676;23.352;2022-12-29T04:06:00;95671.88;;;4.73;71.39
56831;BME280;42713;42.676;23.352;2022-12-29T04:08:26;95682.00;;;4.68;72.40
56831;BME280;42713;42.676;23.352;2022-12-29T04:10:51;95671.97;;;4.65;72.27
56831;BME280;42713;42.676;23.352;2022-12-29T04:13:16;95664.75;;;4.60;72.60
56831;BME280;42713;42.676;23.352;2022-12-29T04:15:43;95672.34;;;4.62;72.28
56831;BME280;42713;42.676;23.352;2022-12-29T04:18:08;95670.91;;;4.59;72.68
56831;BME280;42713;42.676;23.352;2022-12-29T04:20:34;95677.72;;;4.60;72.77
56831;BME280;42713;42.676;23.352;2022-12-29T04:23:18;95669.69;;;4.55;72.22
56831;BME280;42713;42.676;23.352;2022-12-29T04:25:45;95667.09;;;4.55;72.66
56831;BME280;42713;42.676;23.352;2022-12-29T04:28:12;95673.84;;;4.56;73.14
56831;BME280;42713;42.676;23.352;2022-12-29T04:30:38;95676.28;;;4.58;72.84
56831;BME280;42713;42.676;23.352;2022-12-29T04:33:03;95676.28;;;4.58;72.74
56831;BME280;42713;42.676;23.352;2022-12-29T04:35:29;95679.69;;;4.58;72.59
56831;BME280;42713;42.676;23.352;2022-12-29T04:37:54;95687.47;;;4.58;72.73
56831;BME280;42713;42.676;23.352;2022-12-29T04:40:20;95685.69;;;4.59;72.14
56831;BME280;42713;42.676;23.352;2022-12-29T04:42:45;95677.63;;;4.54;73.00
56831;BME280;42713;42.676;23.352;2022-12-29T04:45:11;95681.03;;;4.54;72.47
56831;BME280;42713;42.676;23.352;2022-12-29T04:47:36;95692.66;;;4.58;72.72
56831;BME280;42713;42.676;23.352;2022-12-29T04:50:02;95695.09;;;4.60;72.92
56831;BME280;42713;42.676;23.352;2022-12-29T04:52:28;95702.88;;;4.60;72.88
56831;BME280;42713;42.676;23.352;2022-12-29T04:54:53;95706.06;;;4.62;72.30
56831;BME280;42713;42.676;23.352;2022-12-29T04:57:19;95702.06;;;4.59;72.68
56831;BME280;42713;42.676;23.352;2022-12-29T04:59:44;95699.66;;;4.58;72.25
56831;BME280;42713;42.676;23.352;2022-12-29T05:02:10;95704.19;;;4.56;72.10
56831;BME280;42713;42.676;23.352;2022-12-29T05:04:35;95694.38;;;4.51;72.06
56831;BME280;42713;42.676;23.352;2022-12-29T05:07:01;95702.16;;;4.51;72.58
56831;BME280;42713;42.676;23.352;2022-12-29T05:09:26;95698.28;;;4.47;72.33
56831;BME280;42713;42.676;23.352;2022-12-29T05:11:52;95704.09;;;4.49;72.69
56831;BME280;42713;42.676;23.352;2022-12-29T05:14:17;95692.94;;;4.48;72.47
56831;BME280;42713;42.676;23.352;2022-12-29T05:16:42;95689.63;;;4.40;72.54
56831;BME280;42713;42.676;23.352;2022-12-29T05:19:08;95705.38;;;4.38;72.57
56831;BME280;42713;42.676;23.352;2022-12-29T05:21:33;95701.34;;;4.35;72.88
56831;BME280;42713;42.676;23.352;2022-12-29T05:23:59;95703.31;;;4.33;72.98
56831;BME280;42713;42.676;23.352;2022-12-29T05:26:24;95690.69;;;4.30;73.11
56831;BME280;42713;42.676;23.352;2022-12-29T05:28:50;95700.53;;;4.35;73.33
56831;BME280;42713;42.676;23.352;2022-12-29T05:31:15;95694.56;;;4.34;72.91
56831;BME280;42713;42.676;23.352;2022-12-29T05:33:41;95699.38;;;4.38;73.45
56831;BME280;42713;42.676;23.352;2022-12-29T05:36:08;95692.75;;;4.35;73.21
56831;BME280;42713;42.676;23.352;2022-12-29T05:38:34;95692.94;;;4.33;73.40
56831;BME280;42713;42.676;23.352;2022-12-29T05:41:00;95699.56;;;4.36;73.58
56831;BME280;42713;42.676;23.352;2022-12-29T05:43:25;95704.19;;;4.41;73.89
56831;BME280;42713;42.676;23.352;2022-12-29T05:45:53;95704.00;;;4.42;73.18
56831;BME280;42713;42.676;23.352;2022-12-29T05:48:19;95699.66;;;4.43;73.34
56831;BME280;42713;42.676;23.352;2022-12-29T05:50:48;95705.38;;;4.38;73.57
56831;BME280;42713;42.676;23.352;2022-12-29T05:53:14;95709.75;;;4.38;73.82
56831;BME280;42713;42.676;23.352;2022-12-29T05:55:40;95707.53;;;4.34;74.09
56831;BME280;42713;42.676;23.352;2022-12-29T05:58:05;95716.53;;;4.39;74.07
56831;BME280;42713;42.676;23.352;2022-12-29T06:00:31;95714.13;;;4.37;74.18
56831;BME280;42713;42.676;23.352;2022-12-29T06:02:56;95721.91;;;4.37;74.38
56831;BME280;42713;42.676;23.352;2022-12-29T06:05:22;95722.72;;;4.38;74.90
56831;BME280;42713;42.676;23.352;2022-12-29T06:07:47;95712.72;;;4.34;74.76
56831;BME280;42713;42.676;23.352;2022-12-29T06:10:13;95730.13;;;4.41;74.57
56831;BME280;42713;42.676;23.352;2022-12-29T06:12:38;95721.81;;;4.45;75.16
56831;BME280;42713;42.676;23.352;2022-12-29T06:15:04;95719.03;;;4.47;74.60
56831;BME280;42713;42.676;23.352;2022-12-29T06:17:30;95722.56;;;4.54;74.78
56831;BME280;42713;42.676;23.352;2022-12-29T06:19:55;95728.00;;;4.59;74.44
56831;BME280;42713;42.676;23.352;2022-12-29T06:22:21;95721.03;;;4.60;74.51
56831;BME280;42713;42.676;23.352;2022-12-29T06:24:46;95723.16;;;4.56;74.48
56831;BME280;42713;42.676;23.352;2022-12-29T06:27:11;95720.41;;;4.58;74.98
56831;BME280;42713;42.676;23.352;2022-12-29T06:29:39;95713.25;;;4.60;74.81
56831;BME280;42713;42.676;23.352;2022-12-29T06:32:06;95734.53;;;4.70;74.64
56831;BME280;42713;42.676;23.352;2022-12-29T06:34:32;95723.00;;;4.73;74.52
56831;BME280;42713;42.676;23.352;2022-12-29T06:36:57;95725.41;;;4.74;74.47
56831;BME280;42713;42.676;23.352;2022-12-29T06:39:23;95726.75;;;4.70;74.36
56831;BME280;42713;42.676;23.352;2022-12-29T06:41:53;95734.97;;;4.74;75.17
56831;BME280;42713;42.676;23.352;2022-12-29T06:44:21;95729.78;;;4.74;74.81
56831;BME280;42713;42.676;23.352;2022-12-29T06:46:47;95728.28;;;4.64;75.47
56831;BME280;42713;42.676;23.352;2022-12-29T06:49:13;95731.13;;;4.70;75.51
56831;BME280;42713;42.676;23.352;2022-12-29T06:51:39;95733.91;;;4.68;76.13
56831;BME280;42713;42.676;23.352;2022-12-29T06:54:05;95737.38;;;4.75;75.77
56831;BME280;42713;42.676;23.352;2022-12-29T06:56:31;95736.06;;;4.79;75.40
56831;BME280;42713;42.676;23.352;2022-12-29T06:58:56;95745.91;;;4.84;75.67
56831;BME280;42713;42.676;23.352;2022-12-29T07:01:22;95742.38;;;4.92;75.04
56831;BME280;42713;42.676;23.352;2022-12-29T07:03:47;95747.47;;;4.85;75.09
56831;BME280;42713;42.676;23.352;2022-12-29T07:06:13;95728.09;;;4.81;75.03
56831;BME280;42713;42.676;23.352;2022-12-29T07:08:38;95745.88;;;4.99;75.19
56831;BME280;42713;42.676;23.352;2022-12-29T07:11:05;95743.19;;;5.07;75.15
56831;BME280;42713;42.676;23.352;2022-12-29T07:13:30;95744.59;;;5.10;74.84
56831;BME280;42713;42.676;23.352;2022-12-29T07:15:56;95737.44;;;5.12;73.70
56831;BME280;42713;42.676;23.352;2022-12-29T07:18:21;95737.44;;;5.12;73.70
56831;BME280;42713;42.676;23.352;2022-12-29T07:20:47;95737.28;;;4.98;73.16
56831;BME280;42713;42.676;23.352;2022-12-29T07:23:12;95738.22;;;5.12;73.25
56831;BME280;42713;42.676;23.352;2022-12-29T07:25:38;95729.03;;;5.10;72.94
56831;BME280;42713;42.676;23.352;2022-12-29T07:28:06;95734.56;;;5.07;72.69
56831;BME280;42713;42.676;23.352;2022-12-29T07:30:31;95735.19;;;5.09;72.67
56831;BME280;42713;42.676;23.352;2022-12-29T07:32:56;95740.28;;;5.17;72.17
56831;BME280;42713;42.676;23.352;2022-12-29T07:35:22;95740.78;;;5.27;72.48
56831;BME280;42713;42.676;23.352;2022-12-29T07:37:53;95734.88;;;5.34;72.16
56831;BME280;42713;42.676;23.352;2022-12-29T07:40:18;95742.78;;;5.47;71.71
56831;BME280;42713;42.676;23.352;2022-12-29T07:42:44;95740.19;;;5.47;71.50
56831;BME280;42713;42.676;23.352;2022-12-29T07:45:09;95745.09;;;5.57;70.77
56831;BME280;42713;42.676;23.352;2022-12-29T07:47:35;95740.97;;;5.63;70.77
56831;BME280;42713;42.676;23.352;2022-12-29T07:50:00;95736.63;;;5.70;70.86
56831;BME280;42713;42.676;23.352;2022-12-29T07:52:26;95735.31;;;5.81;70.77
56831;BME280;42713;42.676;23.352;2022-12-29T07:54:51;95738.72;;;5.81;70.86
56831;BME280;42713;42.676;23.352;2022-12-29T07:57:16;95750.66;;;5.97;70.66
56831;BME280;42713;42.676;23.352;2022-12-29T07:59:42;95744.53;;;5.83;70.00
56831;BME280;42713;42.676;23.352;2022-12-29T08:02:10;95749.56;;;5.85;70.12
56831;BME280;42713;42.676;23.352;2022-12-29T08:04:38;95738.97;;;5.86;70.58
56831;BME280;42713;42.676;23.352;2022-12-29T08:07:04;95753.72;;;6.01;70.71
56831;BME280;42713;42.676;23.352;2022-12-29T08:09:29;95758.78;;;6.09;70.10
56831;BME280;42713;42.676;23.352;2022-12-29T08:11:55;95755.16;;;6.03;69.50
56831;BME280;42713;42.676;23.352;2022-12-29T08:14:21;95755.19;;;6.10;68.88
56831;BME280;42713;42.676;23.352;2022-12-29T08:16:46;95748.63;;;6.14;69.57
56831;BME280;42713;42.676;23.352;2022-12-29T08:19:12;95741.91;;;6.27;69.62
56831;BME280;42713;42.676;23.352;2022-12-29T08:21:38;95746.59;;;6.38;68.86
56831;BME280;42713;42.676;23.352;2022-12-29T08:24:05;95740.25;;;6.47;68.30
56831;BME280;42713;42.676;23.352;2022-12-29T08:26:30;95739.88;;;6.57;68.59
56831;BME280;42713;42.676;23.352;2022-12-29T08:28:56;95733.16;;;6.69;68.12
56831;BME280;42713;42.676;23.352;2022-12-29T08:31:23;95736.78;;;6.75;67.71
56831;BME280;42713;42.676;23.352;2022-12-29T08:33:49;95750.63;;;6.76;67.12
56831;BME280;42713;42.676;23.352;2022-12-29T08:36:15;95740.22;;;6.82;67.59
56831;BME280;42713;42.676;23.352;2022-12-29T08:38:41;95740.66;;;6.86;67.15
56831;BME280;42713;42.676;23.352;2022-12-29T08:41:07;95736.47;;;6.92;66.92
56831;BME280;42713;42.676;23.352;2022-12-29T08:43:32;95739.09;;;6.98;66.53
56831;BME280;42713;42.676;23.352;2022-12-29T08:45:59;95737.72;;;7.03;67.03
56831;BME280;42713;42.676;23.352;2022-12-29T08:48:25;95741.88;;;6.90;67.03
56831;BME280;42713;42.676;23.352;2022-12-29T08:50:50;95735.44;;;6.79;66.37
56831;BME280;42713;42.676;23.352;2022-12-29T08:53:17;95737.88;;;6.88;66.41
56831;BME280;42713;42.676;23.352;2022-12-29T08:55:45;95738.63;;;6.81;66.71
56831;BME280;42713;42.676;23.352;2022-12-29T08:58:11;95735.19;;;6.74;66.45
56831;BME280;42713;42.676;23.352;2022-12-29T09:00:40;95726.63;;;6.80;66.02
56831;BME280;42713;42.676;23.352;2022-12-29T09:03:06;95729.22;;;6.80;65.99
56831;BME280;42713;42.676;23.352;2022-12-29T09:05:31;95727.63;;;6.86;66.08
56831;BME280;42713;42.676;23.352;2022-12-29T09:07:57;95724.03;;;6.87;66.12
56831;BME280;42713;42.676;23.352;2022-12-29T09:10:22;95720.84;;;6.85;66.67
56831;BME280;42713;42.676;23.352;2022-12-29T09:12:48;95720.88;;;6.98;67.02
56831;BME280;42713;42.676;23.352;2022-12-29T09:15:14;95712.09;;;7.06;66.45
56831;BME280;42713;42.676;23.352;2022-12-29T09:17:40;95707.28;;;7.10;66.74
56831;BME280;42713;42.676;23.352;2022-12-29T09:20:07;95710.88;;;7.09;65.56
56831;BME280;42713;42.676;23.352;2022-12-29T09:22:35;95714.09;;;7.04;66.35
56831;BME280;42713;42.676;23.352;2022-12-29T09:25:01;95716.09;;;7.09;65.94
56831;BME280;42713;42.676;23.352;2022-12-29T09:27:26;95713.50;;;7.09;66.87
56831;BME280;42713;42.676;23.352;2022-12-29T09:29:52;95711.88;;;7.08;66.30
56831;BME280;42713;42.676;23.352;2022-12-29T09:32:17;95712.44;;;6.96;66.46
56831;BME280;42713;42.676;23.352;2022-12-29T09:34:43;95703.03;;;6.95;66.75
56831;BME280;42713;42.676;23.352;2022-12-29T09:37:08;95706.50;;;7.09;66.47
56831;BME280;42713;42.676;23.352;2022-12-29T09:39:34;95698.09;;;7.21;66.66
56831;BME280;42713;42.676;23.352;2022-12-29T09:42:11;95696.72;;;7.31;66.34
56831;BME280;42713;42.676;23.352;2022-12-29T09:47:14;95690.94;;;7.36;66.03
56831;BME280;42713;42.676;23.352;2022-12-29T09:49:48;95694.31;;;7.37;66.30
56831;BME280;42713;42.676;23.352;2022-12-29T09:52:20;95684.72;;;7.51;65.97
56831;BME280;42713;42.676;23.352;2022-12-29T09:57:20;95684.53;;;7.66;65.85
56831;BME280;42713;42.676;23.352;2022-12-29T09:59:50;95678.56;;;7.78;64.96
56831;BME280;42713;42.676;23.352;2022-12-29T10:02:27;95675.34;;;7.83;65.24
56831;BME280;42713;42.676;23.352;2022-12-29T10:04:54;95679.72;;;7.69;65.84
56831;BME280;42713;42.676;23.352;2022-12-29T10:07:40;95675.13;;;7.71;65.86
56831;BME280;42713;42.676;23.352;2022-12-29T10:23:33;95660.22;;;8.25;64.20
56831;BME280;42713;42.676;23.352;2022-12-29T10:26:02;95656.63;;;8.26;64.11
56831;BME280;42713;42.676;23.352;2022-12-29T10:28:48;95656.38;;;8.35;64.11
56831;BME280;42713;42.676;23.352;2022-12-29T10:31:25;95652.75;;;8.43;63.66
56831;BME280;42713;42.676;23.352;2022-12-29T10:33:57;95647.94;;;8.46;64.21
56831;BME280;42713;42.676;23.352;2022-12-29T10:36:38;95648.94;;;8.59;64.00
56831;BME280;42713;42.676;23.352;2022-12-29T10:39:25;95647.69;;;8.68;63.80
56831;BME280;42713;42.676;23.352;2022-12-29T10:44:34;95645.81;;;8.82;63.19
56831;BME280;42713;42.676;23.352;2022-12-29T10:47:07;95644.19;;;8.87;62.31
56831;BME280;42713;42.676;23.352;2022-12-29T10:49:40;95634.09;;;8.98;62.43
56831;BME280;42713;42.676;23.352;2022-12-29T10:52:07;95627.25;;;9.03;62.27
56831;BME280;42713;42.676;23.352;2022-12-29T10:54:55;95627.22;;;9.10;62.22
56831;BME280;42713;42.676;23.352;2022-12-29T10:59:54;95614.47;;;9.21;62.18
56831;BME280;42713;42.676;23.352;2022-12-29T11:02:30;95615.81;;;9.30;62.27
56831;BME280;42713;42.676;23.352;2022-12-29T11:07:47;95598.03;;;9.39;61.81
56831;BME280;42713;42.676;23.352;2022-12-29T11:13:04;95599.13;;;9.56;60.81
56831;BME280;42713;42.676;23.352;2022-12-29T11:15:41;95598.47;;;9.61;61.41
56831;BME280;42713;42.676;23.352;2022-12-29T11:18:24;95598.88;;;9.64;60.41
56831;BME280;42713;42.676;23.352;2022-12-29T11:20:53;95602.28;;;9.65;60.54
56831;BME280;42713;42.676;23.352;2022-12-29T11:28:38;95588.59;;;9.63;60.50
56831;BME280;42713;42.676;23.352;2022-12-29T11:31:05;95585.84;;;9.58;60.72
56831;BME280;42713;42.676;23.352;2022-12-29T11:33:33;95580.75;;;9.63;60.58
56831;BME280;42713;42.676;23.352;2022-12-29T11:36:06;95582.53;;;9.69;60.57
56831;BME280;42713;42.676;23.352;2022-12-29T11:38:38;95579.28;;;9.74;60.42
56831;BME280;42713;42.676;23.352;2022-12-29T11:41:05;95585.25;;;9.81;59.49
56831;BME280;42713;42.676;23.352;2022-12-29T11:43:39;95584.72;;;9.91;59.59
56831;BME280;42713;42.676;23.352;2022-12-29T11:46:14;95574.78;;;10.00;59.33
56831;BME280;42713;42.676;23.352;2022-12-29T11:48:42;95572.91;;;10.07;58.91
56831;BME280;42713;42.676;23.352;2022-12-29T11:51:08;95579.91;;;10.13;58.90
56831;BME280;42713;42.676;23.352;2022-12-29T11:53:45;95563.38;;;10.12;58.12
56831;BME280;42713;42.676;23.352;2022-12-29T11:56:19;95572.91;;;10.25;58.78
56831;BME280;42713;42.676;23.352;2022-12-29T11:58:45;95576.47;;;10.31;58.89
56831;BME280;42713;42.676;23.352;2022-12-29T12:01:35;95571.91;;;10.45;58.45
56831;BME280;42713;42.676;23.352;2022-12-29T12:04:06;95567.09;;;10.61;57.93
56831;BME280;42713;42.676;23.352;2022-12-29T12:06:36;95560.53;;;10.70;57.96
56831;BME280;42713;42.676;23.352;2022-12-29T12:09:09;95553.50;;;10.82;57.40
56831;BME280;42713;42.676;23.352;2022-12-29T12:11:39;95556.69;;;10.84;56.98
56831;BME280;42713;42.676;23.352;2022-12-29T12:14:29;95562.28;;;10.88;56.25
56831;BME280;42713;42.676;23.352;2022-12-29T12:17:02;95557.69;;;11.02;56.46
56831;BME280;42713;42.676;23.352;2022-12-29T12:19:40;95559.84;;;11.17;56.15
56831;BME280;42713;42.676;23.352;2022-12-29T12:22:19;95557.28;;;11.29;55.89
56831;BME280;42713;42.676;23.352;2022-12-29T12:25:02;95549.41;;;11.29;55.81
56831;BME280;42713;42.676;23.352;2022-12-29T12:27:41;95545.19;;;11.28;55.92
56831;BME280;42713;42.676;23.352;2022-12-29T12:30:16;95547.13;;;11.32;56.28
56831;BME280;42713;42.676;23.352;2022-12-29T12:32:54;95548.38;;;11.42;56.12
56831;BME280;42713;42.676;23.352;2022-12-29T12:35:50;95541.00;;;11.50;56.28
56831;BME280;42713;42.676;23.352;2022-12-29T12:41:09;95550.47;;;11.75;56.24
56831;BME280;42713;42.676;23.352;2022-12-29T12:43:48;95540.88;;;11.81;55.64
56831;BME280;42713;42.676;23.352;2022-12-29T12:46:31;95538.91;;;11.88;54.71
56831;BME280;42713;42.676;23.352;2022-12-29T12:59:49;95536.78;;;11.85;54.04
56831;BME280;42713;42.676;23.352;2022-12-29T13:05:24;95541.00;;;11.98;54.03
56831;BME280;42713;42.676;23.352;2022-12-29T13:08:19;95537.19;;;11.94;54.20
56831;BME280;42713;42.676;23.352;2022-12-29T13:30:15;95544.78;;;13.18;51.44
56831;BME280;42713;42.676;23.352;2022-12-29T13:35:37;95535.19;;;13.41;50.29
56831;BME280;42713;42.676;23.352;2022-12-29T13:38:22;95529.38;;;13.56;49.98
56831;BME280;42713;42.676;23.352;2022-12-29T13:40:55;95543.00;;;13.69;49.68
56831;BME280;42713;42.676;23.352;2022-12-29T13:43:22;95526.25;;;13.76;49.41
56831;BME280;42713;42.676;23.352;2022-12-29T13:46:10;95531.84;;;13.62;49.56
56831;BME280;42713;42.676;23.352;2022-12-29T13:48:43;95537.09;;;13.62;49.57
56831;BME280;42713;42.676;23.352;2022-12-29T13:51:11;95545.41;;;13.54;49.52
56831;BME280;42713;42.676;23.352;2022-12-29T13:53:59;95543.22;;;13.34;50.02
56831;BME280;42713;42.676;23.352;2022-12-29T13:59:21;95536.16;;;12.88;50.93
56831;BME280;42713;42.676;23.352;2022-12-29T14:02:03;95544.81;;;12.72;50.91
56831;BME280;42713;42.676;23.352;2022-12-29T14:04:30;95546.09;;;12.57;51.25
56831;BME280;42713;42.676;23.352;2022-12-29T14:07:11;95553.66;;;12.54;51.83
56831;BME280;42713;42.676;23.352;2022-12-29T14:09:49;95550.84;;;12.43;52.20
56831;BME280;42713;42.676;23.352;2022-12-29T14:12:22;95550.19;;;12.36;51.85
56831;BME280;42713;42.676;23.352;2022-12-29T14:14:52;95556.34;;;12.30;52.10
56831;BME280;42713;42.676;23.352;2022-12-29T14:17:20;95550.66;;;12.21;52.31
56831;BME280;42713;42.676;23.352;2022-12-29T14:19:46;95556.81;;;12.15;52.79
56831;BME280;42713;42.676;23.352;2022-12-29T14:22:25;95558.22;;;12.06;53.25
56831;BME280;42713;42.676;23.352;2022-12-29T14:24:51;95558.78;;;11.96;53.37
56831;BME280;42713;42.676;23.352;2022-12-29T14:35:00;95572.69;;;11.49;55.61
56831;BME280;42713;42.676;23.352;2022-12-29T14:37:45;95574.28;;;11.38;55.50
56831;BME280;42713;42.676;23.352;2022-12-29T14:40:18;95575.75;;;11.34;55.78
56831;BME280;42713;42.676;23.352;2022-12-29T14:42:45;95580.28;;;11.27;56.25
56831;BME280;42713;42.676;23.352;2022-12-29T14:47:45;95565.22;;;11.10;57.47
56831;BME280;42713;42.676;23.352;2022-12-29T14:50:18;95572.94;;;11.05;57.32
56831;BME280;42713;42.676;23.352;2022-12-29T14:52:54;95573.41;;;11.02;57.78
56831;BME280;42713;42.676;23.352;2022-12-29T14:58:02;95572.97;;;10.74;58.25
56831;BME280;42713;42.676;23.352;2022-12-29T15:00:35;95580.22;;;10.72;58.94
56831;BME280;42713;42.676;23.352;2022-12-29T15:06:05;95566.81;;;10.50;58.75
56831;BME280;42713;42.676;23.352;2022-12-29T15:08:39;95579.44;;;10.53;59.10
56831;BME280;42713;42.676;23.352;2022-12-29T15:14:02;95580.09;;;10.49;58.91
56831;BME280;42713;42.676;23.352;2022-12-29T15:16:33;95573.50;;;10.46;58.91
56831;BME280;42713;42.676;23.352;2022-12-29T15:19:01;95570.75;;;10.41;59.49
56831;BME280;42713;42.676;23.352;2022-12-29T15:21:29;95577.41;;;10.37;59.64
56831;BME280;42713;42.676;23.352;2022-12-29T15:23:55;95566.28;;;10.23;60.13
56831;BME280;42713;42.676;23.352;2022-12-29T15:26:22;95567.66;;;10.25;60.41